Time;durP1;ratioP1;P1;durP2;ratioP2;P2;SDS_P1;SDS_P2;PMS_P1;PMS_P2;Temp;Humidity;BMP_temperature;BMP_pressure;BME280_temperature;BME280_humidity;BME280_pressure;Samples;Min_cycle;Max_cycle;Signal;HPM_P1;HPM_P2
2021/01/04 00:01:47;;;;;;;19.60;10.90;;;;;;;2.76;79.41;97519.38;4908558;29;20372;-83
2021/01/04 00:04:23;;;;;;;20.73;11.60;;;;;;;2.75;79.18;97523.69;4910252;29;20234;-83
2021/01/04 00:07:15;;;;;;;18.37;11.17;;;;;;;2.75;79.30;97515.97;4908880;29;20258;-83
2021/01/04 00:09:49;;;;;;;19.67;10.57;;;;;;;2.76;79.31;97517.69;4913489;29;20226;-83
2021/01/04 00:12:18;;;;;;;18.53;10.80;;;;;;;2.79;79.06;97525.34;4910230;29;20333;-82
2021/01/04 00:14:54;;;;;;;20.43;11.63;;;;;;;2.75;79.07;97515.97;4913560;29;20246;-84
2021/01/04 00:17:28;;;;;;;18.87;11.13;;;;;;;2.74;78.95;97509.13;4908635;29;21177;-81
2021/01/04 00:19:58;;;;;;;17.50;10.27;;;;;;;2.75;79.44;97505.66;4909848;29;20233;-81
2021/01/04 00:22:31;;;;;;;19.97;11.27;;;;;;;2.72;79.34;97510.91;4908878;29;20992;-82
2021/01/04 00:25:06;;;;;;;21.03;11.50;;;;;;;2.73;79.38;97512.56;4913255;29;20725;-83
2021/01/04 00:27:36;;;;;;;18.90;11.10;;;;;;;2.73;79.41;97516.88;4932873;29;20256;-83
2021/01/04 00:30:11;;;;;;;19.23;11.77;;;;;;;2.68;79.13;97514.38;4929501;29;20262;-83
2021/01/04 00:32:38;;;;;;;19.50;11.77;;;;;;;2.69;79.52;97516.09;4909507;29;20379;-82
2021/01/04 00:35:09;;;;;;;18.43;10.87;;;;;;;2.68;79.21;97514.38;4904725;29;20242;-84
2021/01/04 00:38:13;;;;;;;20.03;11.03;;;;;;;2.60;79.06;97517.09;4909338;29;20221;-83
2021/01/04 00:40:54;;;;;;;18.57;10.67;;;;;;;2.55;79.27;97525.75;4907250;29;20253;-82
2021/01/04 00:43:30;;;;;;;19.63;11.17;;;;;;;2.53;79.87;97519.78;4910306;29;20221;-83
2021/01/04 00:45:57;;;;;;;20.97;11.17;;;;;;;2.60;79.79;97522.25;4908436;29;20341;-83
2021/01/04 00:48:27;;;;;;;20.13;11.77;;;;;;;2.64;79.65;97516.16;4911469;29;20223;-82
2021/01/04 00:51:05;;;;;;;23.13;11.67;;;;;;;2.66;79.42;97519.56;4911209;29;20245;-83
2021/01/04 00:53:34;;;;;;;20.27;11.27;;;;;;;2.65;79.48;97512.72;4912117;29;20365;-83
2021/01/04 00:56:08;;;;;;;20.40;11.33;;;;;;;2.66;79.60;97521.28;4907042;29;20739;-82
2021/01/04 00:58:52;;;;;;;20.30;11.13;;;;;;;2.65;79.50;97520.44;4908317;29;20310;-82
2021/01/04 01:01:28;;;;;;;20.77;11.23;;;;;;;2.70;79.61;97525.50;4909629;29;20246;-83
2021/01/04 01:04:02;;;;;;;20.40;11.50;;;;;;;2.73;79.59;97522.03;4908523;29;20223;-83
2021/01/04 01:06:35;;;;;;;24.07;11.70;;;;;;;2.73;79.74;97522.88;4909025;29;20250;-83
2021/01/04 01:09:02;;;;;;;20.27;12.27;;;;;;;2.72;79.62;97516.03;4907425;29;20223;-84
2021/01/04 01:12:03;;;;;;;18.80;11.20;;;;;;;2.72;79.14;97531.50;4906139;29;20288;-84
2021/01/04 01:14:40;;;;;;;19.87;10.87;;;;;;;2.73;79.39;97525.47;4903720;29;20293;-83
2021/01/04 01:17:39;;;;;;;20.00;11.17;;;;;;;2.71;79.47;97524.63;4906683;29;20246;-83
2021/01/04 01:20:06;;;;;;;19.67;11.00;;;;;;;2.74;79.62;97518.56;4908530;29;20215;-83
2021/01/04 01:22:34;;;;;;;20.93;10.97;;;;;;;2.74;79.48;97524.59;4908527;29;20250;-84
2021/01/04 01:25:05;;;;;;;19.60;10.80;;;;;;;2.76;79.34;97528.00;4908225;29;20247;-82
2021/01/04 01:27:48;;;;;;;21.60;11.10;;;;;;;2.77;79.14;97524.50;4924293;29;20233;-82
2021/01/04 01:30:32;;;;;;;19.10;10.53;;;;;;;2.77;79.31;97529.66;4927763;28;20226;-82
2021/01/04 01:33:25;;;;;;;19.60;10.87;;;;;;;2.78;79.33;97533.13;4926994;29;20219;-82
2021/01/04 01:36:04;;;;;;;20.60;11.80;;;;;;;2.76;79.19;97524.53;4928237;28;20249;-83
2021/01/04 01:39:11;;;;;;;21.53;10.90;;;;;;;2.76;79.75;97528.00;4931810;29;20310;-83
2021/01/04 01:42:01;;;;;;;18.67;11.10;;;;;;;2.74;79.45;97528.88;4927438;28;20241;-82
2021/01/04 01:44:29;;;;;;;21.60;12.03;;;;;;;2.73;79.39;97528.03;4913780;29;20237;-82
2021/01/04 01:47:00;;;;;;;16.70;10.47;;;;;;;2.76;79.39;97525.41;4926198;28;20965;-83
2021/01/04 01:49:44;;;;;;;19.77;11.37;;;;;;;2.78;79.47;97528.81;4927553;29;20280;-82
2021/01/04 01:52:19;;;;;;;15.90;9.83;;;;;;;2.73;79.10;97528.03;4927101;28;20252;-83
2021/01/04 01:54:58;;;;;;;22.63;10.87;;;;;;;2.64;79.37;97531.59;4925302;29;20242;-82
2021/01/04 01:57:44;;;;;;;17.70;11.30;;;;;;;2.64;79.43;97543.63;4925666;29;20626;-82
2021/01/04 02:00:14;;;;;;;19.37;10.40;;;;;;;2.67;79.53;97543.59;4926188;28;20217;-83
2021/01/04 02:02:45;;;;;;;21.80;12.30;;;;;;;2.73;79.52;97552.94;4930756;28;20300;-83
2021/01/04 02:05:18;;;;;;;19.37;10.67;;;;;;;2.73;79.36;97553.78;4925679;28;20244;-81
2021/01/04 02:07:49;;;;;;;19.90;11.00;;;;;;;2.72;79.21;97554.69;4926880;29;20222;-83
2021/01/04 02:10:18;;;;;;;18.63;10.93;;;;;;;2.74;79.61;97554.63;4925696;28;20735;-83
2021/01/04 02:12:51;;;;;;;18.17;10.63;;;;;;;2.77;79.29;97563.16;4928906;29;20338;-83
2021/01/04 02:15:20;;;;;;;17.13;10.50;;;;;;;2.81;79.30;97557.09;4926024;28;21056;-83
2021/01/04 02:18:04;;;;;;;19.23;10.97;;;;;;;2.83;79.15;97562.19;4925925;29;20226;-83
2021/01/04 02:21:07;;;;;;;19.67;10.43;;;;;;;2.78;79.02;97557.13;4929853;28;20788;-83
2021/01/04 02:23:42;;;;;;;21.17;11.50;;;;;;;2.73;78.89;97564.09;4924379;29;20653;-83
2021/01/04 02:26:15;;;;;;;19.90;10.77;;;;;;;2.73;79.14;97558.09;4923781;28;20299;-82
2021/01/04 02:28:49;;;;;;;17.97;9.80;;;;;;;2.70;79.27;97558.97;4928929;29;20214;-82
2021/01/04 02:31:15;;;;;;;17.50;9.90;;;;;;;2.68;79.21;97566.75;4925646;28;20356;-83
2021/01/04 02:33:41;;;;;;;17.37;9.53;;;;;;;2.65;79.37;97560.81;4924128;29;20273;-82
2021/01/04 02:36:08;;;;;;;15.70;9.47;;;;;;;2.62;79.39;97563.41;4923506;28;20241;-83
2021/01/04 02:38:38;;;;;;;15.40;9.77;;;;;;;2.65;79.36;97565.94;4925489;29;20226;-83
2021/01/04 02:41:04;;;;;;;16.10;9.90;;;;;;;2.71;79.41;97565.84;4928850;28;20240;-83
2021/01/04 02:43:31;;;;;;;17.27;9.83;;;;;;;2.71;79.32;97558.13;4921824;29;20221;-82
2021/01/04 02:46:02;;;;;;;18.33;10.57;;;;;;;2.63;79.24;97567.69;4921764;28;20246;-82
2021/01/04 02:48:35;;;;;;;17.83;10.27;;;;;;;2.56;79.28;97571.25;4929570;29;20221;-83
2021/01/04 02:51:07;;;;;;;17.47;10.30;;;;;;;2.53;79.06;97573.88;4928624;28;20238;-82
2021/01/04 02:53:57;;;;;;;18.87;10.63;;;;;;;2.53;79.31;97566.97;4929486;28;20269;-83
2021/01/04 02:56:33;;;;;;;16.47;9.67;;;;;;;2.60;79.24;97572.88;4926019;28;20242;-83
2021/01/04 02:59:06;;;;;;;15.73;9.33;;;;;;;2.64;79.39;97572.81;4926431;29;20226;-81
2021/01/04 03:01:36;;;;;;;17.90;9.90;;;;;;;2.67;79.25;97577.06;4929656;28;20241;-83
2021/01/04 03:04:03;;;;;;;17.67;10.17;;;;;;;2.69;79.31;97576.16;4924714;29;20589;-82
2021/01/04 03:06:38;;;;;;;16.10;10.23;;;;;;;2.69;79.39;97572.75;4922444;28;20284;-84
2021/01/04 03:09:06;;;;;;;20.87;11.03;;;;;;;2.74;79.26;97576.09;4926594;29;20321;-83
2021/01/04 03:11:32;;;;;;;19.70;10.47;;;;;;;2.75;78.99;97575.22;4922051;28;20238;-83
2021/01/04 03:14:04;;;;;;;20.63;10.03;;;;;;;2.73;79.28;97566.66;4923160;29;20221;-83
2021/01/04 03:16:36;;;;;;;16.30;9.50;;;;;;;2.77;79.18;97570.88;4928838;28;20237;-82
2021/01/04 03:19:04;;;;;;;19.30;10.10;;;;;;;2.77;79.19;97575.19;4923402;29;20289;-82
2021/01/04 03:21:31;;;;;;;16.67;10.17;;;;;;;2.78;79.30;97572.59;4927827;28;20245;-83
2021/01/04 03:23:58;;;;;;;18.37;10.40;;;;;;;2.80;78.95;97567.41;4922757;29;20306;-83
2021/01/04 03:26:26;;;;;;;17.60;9.93;;;;;;;2.78;78.78;97564.88;4930222;28;20242;-83
2021/01/04 03:28:52;;;;;;;17.67;10.13;;;;;;;2.77;78.74;97563.16;4928209;28;21073;-83
2021/01/04 03:31:19;;;;;;;16.50;8.77;;;;;;;2.77;78.66;97558.00;4925010;28;20241;-82
2021/01/04 03:33:46;;;;;;;15.30;9.13;;;;;;;2.76;78.97;97561.47;4922056;29;20218;-82
2021/01/04 03:36:13;;;;;;;16.20;9.43;;;;;;;2.76;78.96;97553.75;4923565;28;20257;-82
2021/01/04 03:38:39;;;;;;;15.40;9.00;;;;;;;2.78;78.60;97552.00;4929012;29;20273;-82
2021/01/04 03:41:06;;;;;;;16.73;8.60;;;;;;;2.80;78.79;97560.53;4924443;28;20285;-82
2021/01/04 03:43:33;;;;;;;16.37;9.50;;;;;;;2.78;78.70;97554.56;4924633;28;20288;-83
2021/01/04 03:45:59;;;;;;;15.83;9.20;;;;;;;2.80;78.52;97565.69;4926958;28;20595;-81
2021/01/04 03:48:27;;;;;;;16.27;9.27;;;;;;;2.79;78.70;97553.66;4924066;28;20221;-83
2021/01/04 03:50:53;;;;;;;14.90;8.80;;;;;;;2.82;78.85;97558.78;4926793;28;20959;-82
2021/01/04 03:53:20;;;;;;;15.77;9.53;;;;;;;2.83;78.45;97554.47;4923083;29;20244;-83
2021/01/04 03:55:46;;;;;;;16.67;8.90;;;;;;;2.76;78.55;97548.59;4923295;28;20244;-83
2021/01/04 03:58:13;;;;;;;16.87;8.87;;;;;;;2.77;78.34;97550.28;4925048;29;20261;-82
2021/01/04 04:00:39;;;;;;;14.90;9.00;;;;;;;2.78;78.62;97551.16;4927603;28;20245;-82
2021/01/04 04:03:05;;;;;;;16.97;10.00;;;;;;;2.76;78.62;97548.59;4924459;29;20234;-84
2021/01/04 04:05:32;;;;;;;14.87;8.77;;;;;;;2.76;78.68;97553.75;4923938;28;20253;-84
2021/01/04 04:07:59;;;;;;;13.77;8.30;;;;;;;2.78;78.52;97551.16;4926972;28;20680;-83
2021/01/04 04:10:26;;;;;;;16.93;9.73;;;;;;;2.79;78.52;97556.25;4924932;28;20221;-84
2021/01/04 04:12:53;;;;;;;16.07;9.13;;;;;;;2.78;78.44;97559.72;4927681;28;20276;-83
2021/01/04 04:15:20;;;;;;;13.20;8.40;;;;;;;2.78;78.74;97553.72;4923014;28;20776;-83
2021/01/04 04:17:47;;;;;;;14.67;8.73;;;;;;;2.79;78.55;97557.97;4924407;29;20222;-83
2021/01/04 04:20:16;;;;;;;14.27;8.67;;;;;;;2.79;78.65;97561.41;4923432;28;20308;-83
2021/01/04 04:22:43;;;;;;;15.20;9.00;;;;;;;2.79;78.44;97558.81;4924314;29;20777;-83
2021/01/04 04:25:16;;;;;;;15.27;9.03;;;;;;;2.81;78.33;97567.41;4921121;28;20289;-83
2021/01/04 04:27:42;;;;;;;17.97;9.63;;;;;;;2.83;78.22;97560.50;4929443;29;20228;-82
2021/01/04 04:30:10;;;;;;;16.83;9.37;;;;;;;2.82;78.13;97563.94;4922600;28;20253;-82
2021/01/04 04:32:37;;;;;;;20.20;9.93;;;;;;;2.84;78.37;97561.34;4924031;28;20488;-83
2021/01/04 04:35:04;;;;;;;15.80;9.27;;;;;;;2.81;78.20;97551.94;4924606;28;20238;-83
2021/01/04 04:37:30;;;;;;;15.23;9.60;;;;;;;2.82;78.32;97557.94;4931163;29;20228;-83
2021/01/04 04:39:57;;;;;;;15.70;8.67;;;;;;;2.82;78.45;97561.34;4926369;29;20214;-83
2021/01/04 04:42:23;;;;;;;17.17;9.30;;;;;;;2.82;78.26;97552.78;4929934;28;20245;-82
2021/01/04 04:44:57;;;;;;;15.83;9.63;;;;;;;2.78;77.85;97557.13;4926982;28;20660;-83
2021/01/04 04:47:32;;;;;;;15.90;8.67;;;;;;;2.79;78.12;97557.97;4931355;28;20242;-83
2021/01/04 04:50:30;;;;;;;17.37;10.03;;;;;;;2.78;78.13;97546.84;4927970;29;20221;-83
2021/01/04 04:53:13;;;;;;;15.60;9.00;;;;;;;2.79;77.99;97552.81;4881616;29;20671;-83
2021/01/04 04:55:59;;;;;;;15.47;8.93;;;;;;;2.76;78.06;97553.75;4913209;28;20312;-83
2021/01/04 04:58:37;;;;;;;13.10;8.33;;;;;;;2.75;78.22;97559.75;4928789;29;20230;-83
2021/01/04 05:01:11;;;;;;;15.20;9.00;;;;;;;2.74;78.10;97563.22;4927091;28;20252;-83
2021/01/04 05:03:56;;;;;;;15.33;8.97;;;;;;;2.71;78.09;97560.69;4931069;29;20243;-83
2021/01/04 05:06:38;;;;;;;16.93;9.00;;;;;;;2.70;78.14;97574.44;4926963;28;20245;-83
2021/01/04 05:09:15;;;;;;;16.93;9.40;;;;;;;2.65;78.21;97571.09;4926901;29;20273;-83
2021/01/04 05:11:45;;;;;;;17.00;8.67;;;;;;;2.65;78.56;97565.94;4926813;28;20621;-83
2021/01/04 05:14:14;;;;;;;17.40;9.13;;;;;;;2.71;78.25;97576.13;4928085;29;20748;-83
2021/01/04 05:16:54;;;;;;;14.40;8.33;;;;;;;2.71;77.84;97565.84;4930819;28;20245;-85
2021/01/04 05:19:42;;;;;;;18.80;11.13;;;;;;;2.74;77.94;97565.81;4928163;29;21066;-81
2021/01/04 05:22:47;;;;;;;16.73;9.87;;;;;;;2.75;78.10;97562.31;4927080;28;20906;-83
2021/01/04 05:25:35;;;;;;;16.67;8.67;;;;;;;2.73;77.96;97561.50;4924449;28;20385;-83
2021/01/04 05:28:24;;;;;;;16.73;8.93;;;;;;;2.75;77.93;97564.91;4927705;29;20836;-82
2021/01/04 05:31:11;;;;;;;13.37;8.23;;;;;;;2.74;78.00;97563.22;4926688;28;20613;-83
2021/01/04 05:33:59;;;;;;;15.77;8.23;;;;;;;2.73;77.88;97568.41;4932286;29;20213;-84
2021/01/04 05:36:53;;;;;;;14.03;8.40;;;;;;;2.69;77.67;97563.28;4927329;28;20249;-84
2021/01/04 05:39:32;;;;;;;14.30;8.10;;;;;;;2.71;78.08;97568.41;4927603;28;20228;-83
2021/01/04 05:42:22;;;;;;;15.77;8.90;;;;;;;2.74;77.72;97572.66;4926540;28;20250;-83
2021/01/04 05:44:59;;;;;;;14.73;8.40;;;;;;;2.73;77.88;97569.22;4926001;28;20694;-82
2021/01/04 05:47:33;;;;;;;14.23;7.77;;;;;;;2.73;77.78;97576.13;4925810;29;20910;-84
2021/01/04 05:50:06;;;;;;;14.10;8.57;;;;;;;2.72;77.72;97575.28;4927389;29;20245;-83
2021/01/04 05:52:33;;;;;;;15.03;8.70;;;;;;;2.68;77.93;97573.59;4930192;29;20241;-84
2021/01/04 05:54:59;;;;;;;12.53;7.87;;;;;;;2.70;77.85;97579.56;4924900;29;20280;-84
2021/01/04 05:57:25;;;;;;;15.60;9.37;;;;;;;2.70;78.10;97587.31;4925628;29;20251;-83
2021/01/04 05:59:54;;;;;;;13.13;8.20;;;;;;;2.70;77.96;97582.16;4925410;29;20313;-84
2021/01/04 06:02:26;;;;;;;15.00;8.60;;;;;;;2.67;78.17;97585.63;4918559;28;20304;-83
2021/01/04 06:04:54;;;;;;;14.17;8.53;;;;;;;2.64;78.00;97590.81;4935622;28;20259;-83
2021/01/04 06:07:20;;;;;;;13.57;8.50;;;;;;;2.63;77.81;97583.16;4930641;28;20234;-82
2021/01/04 06:09:58;;;;;;;12.77;8.27;;;;;;;2.64;77.73;97589.97;4925802;28;20232;-83
2021/01/04 06:12:34;;;;;;;14.80;8.67;;;;;;;2.65;77.96;97591.69;4929251;28;20241;-83
2021/01/04 06:15:02;;;;;;;14.23;8.43;;;;;;;2.67;77.95;97592.53;4927631;28;20261;-83
2021/01/04 06:17:32;;;;;;;14.23;8.30;;;;;;;2.66;77.87;97596.78;4912748;29;20352;-83
2021/01/04 06:20:12;;;;;;;13.60;8.80;;;;;;;2.66;77.98;97589.06;4909287;29;20226;-83
2021/01/04 06:22:41;;;;;;;13.67;8.33;;;;;;;2.67;77.91;97601.09;4928671;29;20262;-84
2021/01/04 06:25:09;;;;;;;13.93;8.33;;;;;;;2.65;77.91;97596.84;4924893;28;20727;-84
2021/01/04 06:27:37;;;;;;;13.97;8.20;;;;;;;2.66;77.80;97599.38;4910204;29;20411;-84
2021/01/04 06:30:21;;;;;;;13.83;8.57;;;;;;;2.68;77.37;97591.63;4909672;29;20629;-83
2021/01/04 06:32:48;;;;;;;12.60;7.73;;;;;;;2.67;78.16;97595.94;4909611;29;20242;-84
2021/01/04 06:35:22;;;;;;;13.33;7.67;;;;;;;2.69;77.65;97593.34;4907099;29;20839;-82
2021/01/04 06:37:49;;;;;;;11.93;7.47;;;;;;;2.70;77.64;97589.88;4912416;29;20233;-83
2021/01/04 06:40:28;;;;;;;13.67;8.30;;;;;;;2.68;77.63;97596.78;4907817;28;20227;-83
2021/01/04 06:42:55;;;;;;;12.33;7.33;;;;;;;2.68;77.77;97595.09;4909320;29;20249;-82
2021/01/04 06:45:30;;;;;;;13.57;8.20;;;;;;;2.67;77.81;97606.25;4904698;29;20265;-83
2021/01/04 06:48:03;;;;;;;12.93;7.70;;;;;;;2.67;77.81;97603.66;4908084;29;20215;-83
2021/01/04 06:50:36;;;;;;;14.90;8.47;;;;;;;2.72;77.92;97607.88;4908407;28;20300;-83
2021/01/04 06:53:22;;;;;;;13.73;7.83;;;;;;;2.70;77.55;97605.31;4907143;29;20988;-84
2021/01/04 06:56:16;;;;;;;13.87;7.60;;;;;;;2.67;77.37;97600.25;4906048;29;20258;-83
2021/01/04 06:59:04;;;;;;;15.10;8.23;;;;;;;2.64;77.10;97610.59;4912037;29;21054;-82
2021/01/04 07:01:55;;;;;;;12.83;7.50;;;;;;;2.65;77.72;97602.84;4911454;28;20289;-82
2021/01/04 07:04:47;;;;;;;13.97;8.37;;;;;;;2.65;77.53;97607.16;4909808;29;20241;-84
2021/01/04 07:07:22;;;;;;;11.97;8.10;;;;;;;2.66;77.77;97601.94;4911134;29;20250;-82
2021/01/04 07:10:14;;;;;;;11.77;8.00;;;;;;;2.65;77.32;97602.00;4909762;29;20229;-85
2021/01/04 07:12:53;;;;;;;12.17;7.67;;;;;;;2.64;77.34;97597.72;4930583;28;20226;-82
2021/01/04 07:15:23;;;;;;;14.33;8.40;;;;;;;2.65;77.70;97596.84;4927051;28;20293;-84
2021/01/04 07:17:58;;;;;;;13.63;7.87;;;;;;;2.64;77.58;97589.97;4923648;29;20313;-84
2021/01/04 07:20:46;;;;;;;14.40;8.53;;;;;;;2.67;77.24;97600.25;4926932;28;20257;-84
2021/01/04 07:23:30;;;;;;;13.63;7.73;;;;;;;2.66;77.20;97603.69;4929303;29;20240;-84
2021/01/04 07:26:00;;;;;;;12.53;8.00;;;;;;;2.64;77.67;97602.88;4924946;29;20773;-84
2021/01/04 07:28:41;;;;;;;14.07;8.63;;;;;;;2.68;77.29;97607.09;4930949;29;20220;-83
2021/01/04 07:31:15;;;;;;;14.23;8.13;;;;;;;2.68;77.36;97602.81;4926928;28;20246;-83
2021/01/04 07:33:50;;;;;;;14.70;8.43;;;;;;;2.69;76.96;97603.66;4927175;29;20214;-82
2021/01/04 07:36:22;;;;;;;12.30;7.83;;;;;;;2.69;77.22;97606.22;4926979;28;20256;-83
2021/01/04 07:39:03;;;;;;;12.93;8.37;;;;;;;2.69;77.04;97607.06;4926941;29;20677;-82
2021/01/04 07:41:38;;;;;;;14.23;8.00;;;;;;;2.67;76.82;97606.25;4927194;28;20252;-84
2021/01/04 07:44:22;;;;;;;15.83;8.00;;;;;;;2.67;77.12;97616.53;4926317;29;20713;-84
2021/01/04 07:47:13;;;;;;;13.87;8.47;;;;;;;2.65;77.28;97618.28;4925944;28;20249;-84
2021/01/04 07:50:13;;;;;;;14.37;8.70;;;;;;;2.68;77.21;97619.97;4928039;29;20225;-83
2021/01/04 07:53:11;;;;;;;13.27;7.97;;;;;;;2.68;77.05;97622.53;4929872;29;20233;-82
2021/01/04 07:55:54;;;;;;;14.87;8.27;;;;;;;2.68;76.98;97622.53;4916386;29;20247;-83
2021/01/04 07:58:56;;;;;;;14.80;8.83;;;;;;;2.70;77.20;97626.81;4927770;28;20226;-83
2021/01/04 08:01:38;;;;;;;12.33;7.33;;;;;;;2.69;76.86;97627.66;4924612;28;20658;-84
2021/01/04 08:04:30;;;;;;;14.80;8.03;;;;;;;2.67;76.82;97631.16;4927426;29;20715;-83
2021/01/04 08:07:11;;;;;;;14.13;8.53;;;;;;;2.68;76.54;97636.28;4925547;28;20246;-84
2021/01/04 08:10:00;;;;;;;12.37;8.20;;;;;;;2.69;76.77;97634.56;4933806;29;20221;-84
2021/01/04 08:13:15;;;;;;;13.03;7.43;;;;;;;2.68;76.64;97628.56;4932038;28;20614;-83
2021/01/04 08:15:44;;;;;;;13.00;7.63;;;;;;;2.66;77.00;97624.28;4932345;28;20248;-83
2021/01/04 08:18:13;;;;;;;13.23;7.87;;;;;;;2.65;76.61;97622.59;4933852;29;20237;-83
2021/01/04 08:20:43;;;;;;;14.90;7.97;;;;;;;2.71;76.62;97632.78;4929492;28;21104;-83
2021/01/04 08:23:40;;;;;;;13.77;7.87;;;;;;;2.71;76.42;97643.09;4930676;29;20961;-83
2021/01/04 08:26:24;;;;;;;12.43;7.67;;;;;;;2.73;76.33;97637.94;4909132;29;20250;-83
2021/01/04 08:29:01;;;;;;;10.70;6.50;;;;;;;2.77;76.63;97637.84;4933315;29;20694;-84
2021/01/04 08:31:43;;;;;;;10.70;6.10;;;;;;;2.77;75.89;97642.16;4930425;28;20718;-84
2021/01/04 08:34:12;;;;;;;11.77;7.10;;;;;;;2.79;76.19;97641.25;4931355;28;20229;-82
2021/01/04 08:36:52;;;;;;;13.27;7.60;;;;;;;2.77;76.13;97645.56;4927499;29;20241;-83
2021/01/04 08:39:33;;;;;;;10.27;6.37;;;;;;;2.77;75.83;97647.31;4931500;29;20229;-85
2021/01/04 08:42:31;;;;;;;11.43;7.33;;;;;;;2.75;75.91;97646.47;4929777;29;20240;-83
2021/01/04 08:45:00;;;;;;;12.00;7.60;;;;;;;2.77;75.77;97657.59;4929774;29;20635;-85
2021/01/04 08:47:31;;;;;;;11.80;7.13;;;;;;;2.79;75.96;97655.84;4932305;29;20237;-83
2021/01/04 08:50:15;;;;;;;8.47;5.83;;;;;;;2.81;75.66;97660.13;4931520;29;20272;-83
2021/01/04 08:52:45;;;;;;;9.93;6.33;;;;;;;2.83;75.79;97653.22;4930165;29;20243;-82
2021/01/04 08:55:23;;;;;;;9.53;5.93;;;;;;;2.83;75.39;97658.38;4928710;28;20246;-84
2021/01/04 08:57:50;;;;;;;8.73;5.17;;;;;;;2.84;75.03;97649.75;4928129;29;20214;-83
2021/01/04 09:00:19;;;;;;;7.57;4.70;;;;;;;2.85;74.24;97648.88;4929816;28;20220;-83
2021/01/04 09:02:45;;;;;;;6.90;4.33;;;;;;;2.82;74.09;97650.66;4928702;29;20238;-83
2021/01/04 09:05:13;;;;;;;7.67;4.87;;;;;;;2.85;74.39;97646.31;4930171;29;20325;-83
2021/01/04 09:07:47;;;;;;;7.97;4.47;;;;;;;2.84;73.83;97648.91;4931032;29;20210;-83
2021/01/04 09:10:19;;;;;;;7.23;4.67;;;;;;;2.84;73.80;97654.91;4927195;28;20224;-84
2021/01/04 09:12:48;;;;;;;7.70;4.83;;;;;;;2.89;73.78;97654.84;4932174;29;20984;-84
2021/01/04 09:15:28;;;;;;;8.90;5.40;;;;;;;2.86;72.81;97648.00;4928714;29;20888;-82
2021/01/04 09:18:08;;;;;;;8.70;5.57;;;;;;;2.86;73.57;97653.16;4929802;29;20310;-84
2021/01/04 09:20:47;;;;;;;8.93;5.40;;;;;;;2.85;73.28;97648.88;4929934;28;20238;-84
2021/01/04 09:23:28;;;;;;;9.23;5.47;;;;;;;2.82;73.00;97658.38;4929118;29;20246;-83
2021/01/04 09:26:13;;;;;;;8.50;5.93;;;;;;;2.75;72.54;97649.91;4926826;28;20248;-84
2021/01/04 09:28:43;;;;;;;9.13;6.53;;;;;;;2.75;73.30;97649.06;4932344;29;20221;-84
2021/01/04 09:31:10;;;;;;;9.57;6.37;;;;;;;2.77;73.00;97652.44;4926740;28;20325;-82
2021/01/04 09:33:44;;;;;;;9.20;6.33;;;;;;;2.79;72.40;97655.84;4928948;29;20224;-83
2021/01/04 09:36:11;;;;;;;9.73;6.30;;;;;;;2.85;72.93;97650.63;4926305;28;20237;-84
2021/01/04 09:38:37;;;;;;;9.93;6.43;;;;;;;2.86;73.40;97647.16;4927740;29;20228;-84
2021/01/04 09:41:05;;;;;;;9.00;6.07;;;;;;;2.88;73.21;97656.56;4930579;28;20280;-82
2021/01/04 09:43:34;;;;;;;10.87;6.67;;;;;;;2.92;73.22;97656.50;4931929;29;20252;-83
2021/01/04 09:46:10;;;;;;;9.83;6.27;;;;;;;2.88;72.96;97646.25;4932277;28;20729;-84
2021/01/04 09:48:41;;;;;;;11.27;6.70;;;;;;;2.92;72.78;97661.66;4927972;29;20750;-85
2021/01/04 09:51:10;;;;;;;11.53;7.20;;;;;;;2.94;72.91;97652.19;4930784;28;20242;-84
2021/01/04 09:53:37;;;;;;;13.20;7.67;;;;;;;2.92;73.33;97656.50;4929591;28;21089;-84
2021/01/04 09:56:08;;;;;;;11.60;7.57;;;;;;;2.95;72.89;97656.47;4925967;28;20288;-88
2021/01/04 09:58:35;;;;;;;10.47;7.37;;;;;;;2.95;72.98;97647.00;4928715;29;20320;-87
2021/01/04 10:01:08;;;;;;;10.13;6.70;;;;;;;2.94;72.74;97649.59;4923927;29;20328;-86
2021/01/04 10:03:35;;;;;;;11.53;7.30;;;;;;;2.94;73.00;97659.91;4934004;29;20236;-84
2021/01/04 10:06:06;;;;;;;12.03;6.63;;;;;;;2.92;72.83;97653.94;4926355;28;20244;-84
2021/01/04 10:08:32;;;;;;;9.53;6.13;;;;;;;2.95;72.89;97659.88;4931450;29;20973;-85
2021/01/04 10:10:59;;;;;;;10.00;7.00;;;;;;;2.97;73.09;97652.16;4931021;28;20233;-84
2021/01/04 10:13:28;;;;;;;12.37;7.03;;;;;;;2.99;73.20;97658.13;4928772;28;21204;-87
2021/01/04 10:15:56;;;;;;;12.07;7.50;;;;;;;3.02;72.95;97652.94;4925533;29;20337;-87
2021/01/04 10:18:38;;;;;;;10.00;6.57;;;;;;;3.01;72.29;97651.22;4926967;28;20317;-88
2021/01/04 10:21:06;;;;;;;10.70;6.67;;;;;;;2.97;72.96;97650.41;4931472;28;20951;-84
2021/01/04 10:23:35;;;;;;;9.03;6.80;;;;;;;3.01;73.21;97648.63;4931342;29;20247;-86
2021/01/04 10:26:03;;;;;;;10.23;7.10;;;;;;;3.03;72.75;97641.72;4924227;29;20249;-87
2021/01/04 10:28:32;;;;;;;10.90;6.60;;;;;;;3.07;72.64;97641.66;4930773;29;20256;-85
2021/01/04 10:31:04;;;;;;;9.00;6.17;;;;;;;3.09;72.63;97637.34;4925196;28;20880;-84
2021/01/04 10:33:34;;;;;;;11.47;7.07;;;;;;;3.10;72.51;97635.59;4926817;28;20308;-85
2021/01/04 10:36:08;;;;;;;11.13;6.43;;;;;;;3.13;72.29;97634.72;4926022;29;20328;-84
2021/01/04 10:38:35;;;;;;;10.73;6.17;;;;;;;3.14;72.14;97621.78;4924752;29;20285;-84
2021/01/04 10:41:07;;;;;;;11.67;6.57;;;;;;;3.15;72.13;97633.78;4925933;28;20234;-85
2021/01/04 10:43:34;;;;;;;9.03;6.37;;;;;;;3.13;72.09;97630.41;4932222;29;20745;-87
2021/01/04 10:46:01;;;;;;;11.03;6.07;;;;;;;3.12;71.71;97628.69;4923565;29;20470;-83
2021/01/04 10:48:29;;;;;;;12.90;7.43;;;;;;;3.11;72.20;97631.28;4927348;29;20679;-84
2021/01/04 10:51:00;;;;;;;11.50;6.80;;;;;;;3.09;72.03;97628.75;4922032;28;20241;-85
2021/01/04 10:53:31;;;;;;;11.40;6.77;;;;;;;3.11;72.04;97632.16;4928132;29;20313;-85
2021/01/04 10:56:10;;;;;;;11.97;7.00;;;;;;;3.13;72.08;97635.56;4919198;29;20241;-85
2021/01/04 10:58:41;;;;;;;10.97;7.03;;;;;;;3.15;71.98;97628.66;4923679;29;20217;-83
2021/01/04 11:01:12;;;;;;;12.00;7.30;;;;;;;3.19;72.21;97617.41;4922325;28;20320;-86
2021/01/04 11:03:40;;;;;;;13.17;8.03;;;;;;;3.23;72.45;97620.78;4923595;28;20241;-86
2021/01/04 11:06:28;;;;;;;8.63;6.37;;;;;;;3.27;72.31;97618.13;4925229;29;20238;-85
2021/01/04 11:08:55;;;;;;;10.10;6.83;;;;;;;3.31;72.13;97613.75;4921006;29;20828;-85
2021/01/04 11:11:34;;;;;;;12.77;7.37;;;;;;;3.32;71.90;97604.28;4922873;29;20328;-85
2021/01/04 11:14:09;;;;;;;10.13;6.90;;;;;;;3.33;71.91;97603.41;4924180;29;20218;-85
2021/01/04 11:16:44;;;;;;;10.47;6.63;;;;;;;3.35;71.67;97599.09;4926841;28;20803;-84
2021/01/04 11:19:10;;;;;;;12.30;6.97;;;;;;;3.35;71.77;97593.94;4924189;29;20217;-84
2021/01/04 11:21:38;;;;;;;11.00;6.90;;;;;;;3.33;71.87;97590.50;4925149;28;20234;-84
2021/01/04 11:24:05;;;;;;;13.57;7.87;;;;;;;3.27;71.57;97591.47;4922181;29;20241;-85
2021/01/04 11:26:31;;;;;;;9.63;6.83;;;;;;;3.27;71.75;97591.47;4923196;29;20332;-84
2021/01/04 11:28:58;;;;;;;12.83;8.07;;;;;;;3.29;71.46;97589.75;4923436;29;20218;-85
2021/01/04 11:31:30;;;;;;;12.33;7.87;;;;;;;3.33;71.63;97575.03;4928623;28;20256;-85
2021/01/04 11:33:57;;;;;;;12.27;7.63;;;;;;;3.34;71.25;97576.75;4924167;29;20273;-85
2021/01/04 11:36:23;;;;;;;11.10;6.90;;;;;;;3.31;71.08;97581.97;4924722;28;20695;-85
2021/01/04 11:38:50;;;;;;;10.97;7.00;;;;;;;3.29;70.86;97587.16;4919928;28;20218;-85
2021/01/04 11:41:16;;;;;;;11.00;7.17;;;;;;;3.30;70.84;97585.44;4928504;29;20763;-84
2021/01/04 11:43:43;;;;;;;12.30;7.37;;;;;;;3.32;71.10;97571.63;4925880;29;20600;-84
2021/01/04 11:46:10;;;;;;;12.13;7.77;;;;;;;3.33;70.89;97565.59;4925780;29;20249;-85
2021/01/04 11:48:37;;;;;;;12.13;7.80;;;;;;;3.29;70.65;97563.97;4928630;29;20649;-84
2021/01/04 11:51:03;;;;;;;12.13;7.63;;;;;;;3.30;71.08;97569.97;4929122;28;20233;-84
2021/01/04 11:53:30;;;;;;;11.87;7.50;;;;;;;3.32;71.73;97573.38;4930386;29;20228;-84
2021/01/04 11:55:57;;;;;;;12.50;7.93;;;;;;;3.36;71.37;97564.69;4924767;28;20551;-84
2021/01/04 12:00:23;;;;;;;13.50;7.70;;;;;;;3.37;71.34;97556.94;5043974;27;1448193;-84
2021/01/04 12:02:49;;;;;;;14.10;8.80;;;;;;;3.35;71.11;97553.53;5043850;28;20860;-84
2021/01/04 12:05:17;;;;;;;12.37;7.97;;;;;;;3.39;71.22;97559.47;5030818;28;20233;-83
2021/01/04 12:07:43;;;;;;;13.43;7.93;;;;;;;3.40;71.22;97551.72;5060433;28;20243;-84